Time;durP1;ratioP1;P1;durP2;ratioP2;P2;SDS_P1;SDS_P2;PMS_P1;PMS_P2;Temp;Humidity;BMP_temperature;BMP_pressure;BME280_temperature;BME280_humidity;BME280_pressure;Samples;Min_cycle;Max_cycle;Signal;HPM_P1;HPM_P2
2023/01/17 00:01:58;;;;;;;18.38;12.02;;;;;;;2.86;100.00;98264.22;5093932;28;20063;-51
2023/01/17 00:09:55;;;;;;;17.58;12.38;;;;;;;2.83;100.00;98271.13;5094575;28;20505;-47
2023/01/17 00:12:27;;;;;;;17.45;11.73;;;;;;;2.89;100.00;98272.59;5094309;28;20542;-47
2023/01/17 00:14:54;;;;;;;17.08;12.15;;;;;;;2.71;100.00;98282.66;5094392;28;20119;-47
2023/01/17 00:17:21;;;;;;;15.25;11.80;;;;;;;2.60;100.00;98287.59;5094731;28;20506;-48
2023/01/17 01:34:56;;;;;;;;;;;;;;;1.05;100.00;98422.09;5093550;28;20329;-50
2023/01/17 01:37:21;;;;;;;14.77;11.30;;;;;;;1.10;100.00;98423.94;5092446;28;19931;-48
2023/01/17 01:39:46;;;;;;;13.57;11.10;;;;;;;1.20;100.00;98429.16;5092037;28;20112;-49
2023/01/17 01:42:15;;;;;;;16.10;11.70;;;;;;;1.16;100.00;98435.53;5085597;28;20396;-50
2023/01/17 01:44:49;;;;;;;16.00;11.65;;;;;;;1.01;100.00;98410.22;5092573;28;20387;-51
2023/01/17 01:47:23;;;;;;;16.80;11.70;;;;;;;1.05;100.00;98424.84;5092378;28;20476;-52
2023/01/17 01:49:49;;;;;;;17.90;11.60;;;;;;;1.14;100.00;98438.56;5092506;28;20039;-52
2023/01/17 01:52:18;;;;;;;15.70;11.52;;;;;;;1.18;100.00;98455.09;5092392;28;20045;-51
2023/01/17 01:54:48;;;;;;;15.07;11.50;;;;;;;1.18;100.00;98455.91;5091976;28;20050;-51
2023/01/17 01:57:18;;;;;;;16.95;11.68;;;;;;;1.22;100.00;98461.56;5092314;28;20111;-51
2023/01/17 01:59:50;;;;;;;14.07;11.40;;;;;;;1.19;100.00;98456.72;5091468;28;20381;-50
2023/01/17 02:02:15;;;;;;;16.65;12.05;;;;;;;1.18;100.00;98466.78;5091834;28;20027;-48
2023/01/17 02:04:43;;;;;;;16.90;11.70;;;;;;;1.21;100.00;98465.41;5092147;28;20053;-48
2023/01/17 02:07:17;;;;;;;17.52;12.05;;;;;;;1.23;100.00;98474.88;5092081;28;20024;-48
2023/01/17 02:09:43;;;;;;;17.45;12.00;;;;;;;1.12;100.00;98476.19;5092455;28;20359;-46
2023/01/17 02:12:09;;;;;;;16.48;12.30;;;;;;;1.15;100.00;98472.03;5091955;28;20031;-48
2023/01/17 02:14:34;;;;;;;15.77;11.77;;;;;;;1.06;100.00;98469.22;5091197;28;20331;-46
2023/01/17 02:17:30;;;;;;;16.92;13.05;;;;;;;0.99;100.00;98469.63;5091508;28;20115;-47
2023/01/17 02:20:46;;;;;;;16.98;12.30;;;;;;;1.11;100.00;98487.38;5091749;28;20028;-49
2023/01/17 02:23:44;;;;;;;16.95;12.00;;;;;;;1.14;100.00;98484.84;5091910;28;20122;-47
2023/01/17 02:26:46;;;;;;;16.92;12.45;;;;;;;1.11;100.00;98488.19;5091683;28;20154;-48
2023/01/17 02:29:46;;;;;;;16.90;12.13;;;;;;;1.16;100.00;98493.53;5090202;28;20099;-48
2023/01/17 02:32:20;;;;;;;18.00;12.88;;;;;;;1.14;100.00;98498.47;5091604;28;20020;-49
2023/01/17 02:35:03;;;;;;;17.08;12.70;;;;;;;1.18;100.00;98504.13;5091197;28;20115;-52
2023/01/17 02:37:44;;;;;;;17.60;13.00;;;;;;;1.23;100.00;98504.84;5085641;28;20690;-52
2023/01/17 02:40:23;;;;;;;18.75;13.13;;;;;;;1.24;100.00;98497.47;5091097;28;20479;-48
2023/01/17 02:42:54;;;;;;;17.25;12.30;;;;;;;1.20;100.00;98482.84;5091345;28;20067;-51
2023/01/17 02:45:19;;;;;;;18.33;12.52;;;;;;;1.13;100.00;98480.53;5090856;28;20440;-47
2023/01/17 02:47:45;;;;;;;18.23;12.45;;;;;;;1.05;100.00;98482.00;5091168;28;20039;-47
2023/01/17 02:50:16;;;;;;;17.05;12.40;;;;;;;1.03;100.00;98489.69;5090531;28;20311;-48
2023/01/17 02:52:55;;;;;;;17.38;12.52;;;;;;;0.98;100.00;98489.78;5091152;28;20028;-48
2023/01/17 02:55:40;;;;;;;17.58;11.63;;;;;;;0.96;100.00;98497.44;5091511;28;20047;-49
2023/01/17 02:58:12;;;;;;;15.68;11.60;;;;;;;0.98;100.00;98499.88;5090982;28;20090;-48
2023/01/17 03:00:51;;;;;;;16.58;12.02;;;;;;;0.95;100.00;98490.38;5090383;28;20480;-49
2023/01/17 03:03:42;;;;;;;15.48;11.30;;;;;;;0.92;100.00;98499.16;5091132;28;20158;-51
2023/01/17 03:06:20;;;;;;;17.55;11.90;;;;;;;0.85;100.00;98496.03;5091308;28;20035;-49
2023/01/17 03:08:48;;;;;;;16.15;11.38;;;;;;;0.77;100.00;98492.06;5091403;28;20490;-49
2023/01/17 03:11:14;;;;;;;16.38;11.93;;;;;;;0.79;100.00;98500.75;5089079;28;20099;-48
2023/01/17 03:13:40;;;;;;;15.55;11.70;;;;;;;0.74;100.00;98515.25;5088817;28;20268;-49
2023/01/17 03:16:11;;;;;;;15.82;11.57;;;;;;;0.66;100.00;98512.38;5090238;28;20168;-51
2023/01/17 03:18:37;;;;;;;16.67;11.88;;;;;;;0.62;100.00;98512.97;5090494;28;20028;-50
2023/01/17 03:21:02;;;;;;;16.48;11.98;;;;;;;0.57;100.00;98521.22;5090590;28;20524;-53
2023/01/17 03:23:27;;;;;;;16.35;11.80;;;;;;;0.52;100.00;98532.19;5090364;28;20337;-47
2023/01/17 03:25:53;;;;;;;16.42;11.68;;;;;;;0.48;100.00;98533.91;5090825;28;20395;-50
2023/01/17 03:28:18;;;;;;;14.98;11.63;;;;;;;0.40;100.00;98538.09;5090646;28;20373;-52
2023/01/17 03:30:43;;;;;;;15.30;11.60;;;;;;;0.34;100.00;98542.00;5089887;28;20406;-51
2023/01/17 03:33:09;;;;;;;15.88;11.80;;;;;;;0.26;100.00;98551.63;5087041;28;20557;-50
2023/01/17 03:35:34;;;;;;;14.68;11.60;;;;;;;0.23;100.00;98544.06;5086164;28;20624;-51
2023/01/17 03:38:00;;;;;;;15.57;11.68;;;;;;;0.20;100.00;98552.81;5090766;28;20031;-49
2023/01/17 03:40:25;;;;;;;15.68;12.30;;;;;;;0.13;100.00;98547.72;5090386;28;20028;-51
2023/01/17 03:42:51;;;;;;;16.75;11.50;;;;;;;0.15;100.00;98547.41;5090427;28;20037;-50
2023/01/17 03:45:16;;;;;;;15.63;11.68;;;;;;;0.12;100.00;98545.31;5090461;28;20055;-48
2023/01/17 03:47:41;;;;;;;14.80;11.10;;;;;;;0.13;100.00;98536.84;5088372;28;20229;-50
2023/01/17 03:50:07;;;;;;;15.95;11.48;;;;;;;0.12;100.00;98540.66;5089314;28;20082;-50
2023/01/17 03:52:33;;;;;;;15.77;11.60;;;;;;;0.14;100.00;98549.34;5088502;28;20031;-48
2023/01/17 03:54:58;;;;;;;15.10;11.02;;;;;;;0.18;100.00;98551.50;5090498;28;20066;-51
2023/01/17 03:57:23;;;;;;;13.25;11.15;;;;;;;0.16;100.00;98554.47;5090394;28;20103;-51
2023/01/17 03:59:49;;;;;;;15.25;11.40;;;;;;;0.18;100.00;98560.44;5088462;28;20032;-52
2023/01/17 04:02:14;;;;;;;14.18;11.00;;;;;;;0.18;100.00;98555.00;5089797;28;20024;-50
2023/01/17 04:04:39;;;;;;;17.23;11.48;;;;;;;0.12;100.00;98545.31;5089672;28;20062;-51
2023/01/17 04:07:05;;;;;;;16.25;11.45;;;;;;;0.10;100.00;98552.94;5090232;28;20341;-49
2023/01/17 04:09:32;;;;;;;14.82;11.48;;;;;;;0.04;100.00;98557.63;5090303;28;20032;-52
2023/01/17 04:11:59;;;;;;;14.63;11.13;;;;;;;0.11;100.00;98558.06;5088914;28;20391;-50
2023/01/17 04:14:24;;;;;;;15.18;10.95;;;;;;;0.12;100.00;98562.41;5090236;28;20107;-48
2023/01/17 04:16:49;;;;;;;14.68;11.13;;;;;;;0.19;100.00;98567.50;5087942;28;20056;-51
2023/01/17 04:19:15;;;;;;;17.40;11.50;;;;;;;0.14;100.00;98557.50;5089897;28;20460;-50
2023/01/17 04:21:40;;;;;;;17.90;11.88;;;;;;;0.14;100.00;98562.16;5090602;28;20047;-48
2023/01/17 04:24:06;;;;;;;15.88;11.73;;;;;;;0.09;100.00;98563.03;5094053;28;20023;-51
2023/01/17 04:26:31;;;;;;;15.48;11.75;;;;;;;0.04;100.00;98568.50;5093971;28;20059;-51
2023/01/17 04:28:56;;;;;;;16.77;11.65;;;;;;;0.00;100.00;98562.06;5094181;28;20102;-47
2023/01/17 04:31:21;;;;;;;16.40;11.63;;;;;;;0.01;100.00;98551.97;5086503;28;20028;-49
2023/01/17 04:33:47;;;;;;;15.70;11.65;;;;;;;-0.04;100.00;98559.09;5093560;28;20455;-51
2023/01/17 04:36:12;;;;;;;17.38;11.60;;;;;;;-0.01;100.00;98557.72;5093051;28;20096;-51
2023/01/17 04:38:37;;;;;;;17.50;11.40;;;;;;;-0.10;100.00;98548.59;5093065;28;20139;-51
2023/01/17 04:41:03;;;;;;;16.85;11.32;;;;;;;-0.07;100.00;98550.72;5093195;28;20028;-51
2023/01/17 04:43:28;;;;;;;15.60;11.48;;;;;;;-0.11;100.00;98555.94;5093242;28;20115;-50
2023/01/17 04:45:57;;;;;;;14.70;11.20;;;;;;;-0.12;100.00;98556.22;5091279;28;20039;-51
2023/01/17 04:48:23;;;;;;;15.55;11.80;;;;;;;-0.13;100.00;98555.41;5093530;28;20375;-52
2023/01/17 04:50:49;;;;;;;16.52;11.88;;;;;;;-0.17;100.00;98557.09;5093789;28;20028;-52
2023/01/17 04:53:15;;;;;;;16.05;11.82;;;;;;;-0.19;100.00;98551.94;5092300;28;20051;-52
2023/01/17 04:55:45;;;;;;;18.33;12.50;;;;;;;-0.22;100.00;98555.25;5092896;28;20098;-49
2023/01/17 04:58:10;;;;;;;16.92;12.13;;;;;;;-0.24;100.00;98553.94;5093139;28;20028;-50
2023/01/17 05:00:35;;;;;;;16.35;12.07;;;;;;;-0.24;100.00;98564.81;5093216;28;20105;-50
2023/01/17 05:03:01;;;;;;;18.45;12.60;;;;;;;-0.25;100.00;98558.56;5092474;28;20118;-49
2023/01/17 05:05:26;;;;;;;16.05;11.73;;;;;;;-0.26;100.00;98567.78;5092680;28;20110;-53
2023/01/17 05:07:56;;;;;;;17.15;12.07;;;;;;;-0.27;100.00;98558.03;5092972;28;20031;-48
2023/01/17 05:10:21;;;;;;;18.15;11.80;;;;;;;-0.25;100.00;98563.97;5092358;28;20060;-50
2023/01/17 05:12:58;;;;;;;18.38;12.00;;;;;;;-0.27;100.00;98563.47;5092539;28;20060;-48
2023/01/17 05:15:24;;;;;;;18.50;12.10;;;;;;;-0.27;100.00;98566.19;5092471;28;20024;-52
2023/01/17 05:17:51;;;;;;;17.63;12.27;;;;;;;-0.34;100.00;98563.84;5092369;28;20024;-51
2023/01/17 05:20:17;;;;;;;19.63;12.80;;;;;;;-0.31;100.00;98570.59;5090487;28;20068;-52
2023/01/17 05:22:43;;;;;;;18.27;12.15;;;;;;;-0.30;100.00;98569.50;5092319;28;20102;-52
2023/01/17 05:25:08;;;;;;;19.45;12.65;;;;;;;-0.34;100.00;98571.97;5089942;28;20428;-48
2023/01/17 05:27:34;;;;;;;19.55;12.70;;;;;;;-0.27;100.00;98566.19;5087507;28;20124;-48
2023/01/17 05:29:59;;;;;;;20.92;12.98;;;;;;;-0.31;100.00;98567.88;5092509;28;20111;-50
2023/01/17 05:32:25;;;;;;;20.25;13.50;;;;;;;-0.32;100.00;98569.75;5090488;28;20024;-47
2023/01/17 05:34:50;;;;;;;22.70;13.60;;;;;;;-0.34;100.00;98571.16;5089908;28;20380;-47
2023/01/17 05:37:16;;;;;;;21.85;13.35;;;;;;;-0.37;100.00;98572.56;5091976;28;20384;-50
2023/01/17 05:39:41;;;;;;;19.85;13.65;;;;;;;-0.36;100.00;98571.47;5092157;28;20035;-52
2023/01/17 05:42:06;;;;;;;21.88;13.55;;;;;;;-0.42;100.00;98575.31;5090041;28;20024;-47
2023/01/17 05:44:31;;;;;;;22.60;14.40;;;;;;;-0.45;100.00;98581.34;5091399;28;20028;-49
2023/01/17 05:46:57;;;;;;;22.27;14.73;;;;;;;-0.51;100.00;98585.19;5091370;28;20032;-51
2023/01/17 05:49:22;;;;;;;21.80;13.98;;;;;;;-0.55;100.00;98584.97;5091951;28;20028;-49
2023/01/17 05:51:48;;;;;;;20.67;13.95;;;;;;;-0.57;100.00;98589.06;5091914;28;20111;-49
2023/01/17 05:54:13;;;;;;;21.73;14.40;;;;;;;-0.64;100.00;98592.13;5089990;28;20048;-47
2023/01/17 05:56:38;;;;;;;21.60;14.07;;;;;;;-0.62;100.00;98598.09;5091404;28;20047;-50
2023/01/17 05:59:04;;;;;;;20.17;14.13;;;;;;;-0.63;100.00;98600.00;5091641;28;20490;-50
2023/01/17 06:01:29;;;;;;;22.88;15.43;;;;;;;-0.61;100.00;98599.69;5091482;28;20085;-46
2023/01/17 06:03:54;;;;;;;22.35;14.38;;;;;;;-0.64;100.00;98601.09;5091084;28;20028;-51
2023/01/17 06:06:20;;;;;;;21.48;14.98;;;;;;;-0.68;100.00;98601.94;5090288;28;20472;-49
2023/01/17 06:08:45;;;;;;;23.13;15.45;;;;;;;-0.74;100.00;98606.63;5090964;28;20089;-48
2023/01/17 06:11:11;;;;;;;23.35;15.80;;;;;;;-0.74;100.00;98595.75;5090583;28;20046;-48
2023/01/17 06:13:36;;;;;;;23.23;14.95;;;;;;;-0.73;100.00;98604.69;5089919;28;20031;-48
2023/01/17 06:16:02;;;;;;;21.52;14.90;;;;;;;-0.73;100.00;98599.28;5089772;28;20024;-48
2023/01/17 06:18:29;;;;;;;23.33;14.50;;;;;;;-0.74;100.00;98600.38;5089327;28;20107;-47
2023/01/17 06:20:55;;;;;;;24.50;15.30;;;;;;;-0.80;100.00;98600.44;5081855;28;20028;-49
2023/01/17 06:23:21;;;;;;;22.02;15.13;;;;;;;-0.74;100.00;98601.19;5089774;28;20425;-48
2023/01/17 06:25:47;;;;;;;22.65;15.23;;;;;;;-0.81;100.00;98604.22;5090039;28;20104;-50
2023/01/17 06:28:14;;;;;;;24.75;15.43;;;;;;;-0.83;100.00;98598.28;5089787;28;20379;-50
2023/01/17 06:30:40;;;;;;;22.83;14.63;;;;;;;-0.84;100.00;98612.16;5089641;28;20133;-49
2023/01/17 06:33:06;;;;;;;25.58;15.90;;;;;;;-0.81;100.00;98608.88;5089375;28;20024;-48
2023/01/17 06:35:32;;;;;;;24.70;16.17;;;;;;;-0.83;100.00;98602.91;5088453;28;20047;-48
2023/01/17 06:37:59;;;;;;;22.60;15.40;;;;;;;-0.80;100.00;98610.47;5088940;28;20302;-49
2023/01/17 06:40:25;;;;;;;25.20;16.20;;;;;;;-0.81;100.00;98611.59;5087222;28;20050;-47
2023/01/17 06:42:51;;;;;;;25.42;15.77;;;;;;;-0.81;100.00;98606.94;5087395;28;20039;-48
2023/01/17 06:45:17;;;;;;;23.95;15.32;;;;;;;-0.82;100.00;98615.38;5089145;28;20024;-47
2023/01/17 06:47:42;;;;;;;23.63;15.95;;;;;;;-0.85;100.00;98616.75;5089791;28;20078;-49
2023/01/17 06:50:13;;;;;;;23.08;16.45;;;;;;;-0.91;100.00;98615.19;5090928;28;20104;-47
2023/01/17 06:52:39;;;;;;;25.70;17.10;;;;;;;-0.89;100.00;98609.47;5090931;28;20036;-48
2023/01/17 06:55:06;;;;;;;24.38;16.90;;;;;;;-0.99;100.00;98611.16;5091004;28;20479;-48
2023/01/17 06:57:31;;;;;;;25.73;16.73;;;;;;;-0.97;100.00;98616.34;5090819;28;20039;-47
2023/01/17 06:59:57;;;;;;;25.50;15.82;;;;;;;-0.98;100.00;98618.22;5091169;28;20139;-46
2023/01/17 07:02:22;;;;;;;26.30;15.77;;;;;;;-1.02;100.00;98624.50;5090062;28;20032;-50
2023/01/17 07:04:47;;;;;;;25.42;16.70;;;;;;;-1.06;100.00;98621.53;5088819;28;20040;-49
2023/01/17 07:07:13;;;;;;;24.45;15.35;;;;;;;-1.09;100.00;98627.56;5088873;28;20119;-47
2023/01/17 07:09:38;;;;;;;24.95;15.82;;;;;;;-1.14;100.00;98633.84;5089368;28;20020;-52
2023/01/17 07:12:03;;;;;;;23.98;15.77;;;;;;;-1.15;100.00;98628.69;5089416;28;20028;-51
2023/01/17 07:14:29;;;;;;;24.98;15.75;;;;;;;-1.20;100.00;98634.16;5089308;28;20133;-49
2023/01/17 07:16:55;;;;;;;23.60;16.63;;;;;;;-1.29;100.00;98625.78;5089685;28;20039;-50
2023/01/17 07:19:21;;;;;;;26.05;16.20;;;;;;;-1.28;100.00;98630.13;5090823;28;20050;-46
2023/01/17 07:21:51;;;;;;;27.00;17.60;;;;;;;-1.35;100.00;98627.72;5090368;28;20494;-49
2023/01/17 07:24:18;;;;;;;24.95;16.73;;;;;;;-1.36;100.00;98633.44;5090603;28;20020;-48
2023/01/17 07:26:43;;;;;;;24.02;16.48;;;;;;;-1.40;100.00;98630.50;5090477;28;20097;-54
2023/01/17 07:29:09;;;;;;;27.02;17.25;;;;;;;-1.42;100.00;98638.88;5090589;28;20418;-51
2023/01/17 07:31:36;;;;;;;26.63;17.73;;;;;;;-1.51;100.00;98639.78;5090675;28;20103;-47
2023/01/17 07:34:02;;;;;;;27.05;19.42;;;;;;;-1.50;100.00;98633.25;5090966;28;20093;-47
2023/01/17 07:36:28;;;;;;;28.77;17.73;;;;;;;-1.53;100.00;98639.25;5090833;28;20031;-48
2023/01/17 07:38:53;;;;;;;26.88;17.85;;;;;;;-1.53;100.00;98639.25;5090693;28;20051;-50
2023/01/17 07:41:18;;;;;;;26.60;17.17;;;;;;;-1.55;100.00;98646.84;5090698;28;20047;-51
2023/01/17 07:43:44;;;;;;;26.67;17.65;;;;;;;-1.55;100.00;98641.41;5090497;28;20035;-49
2023/01/17 07:46:09;;;;;;;25.02;16.77;;;;;;;-1.59;100.00;98644.69;5090703;28;20386;-50
2023/01/17 07:48:34;;;;;;;25.30;17.40;;;;;;;-1.63;100.00;98642.84;5090687;28;20039;-48
2023/01/17 07:51:00;;;;;;;27.08;17.77;;;;;;;-1.62;100.00;98655.31;5090564;28;20028;-50
2023/01/17 07:53:27;;;;;;;25.30;16.52;;;;;;;-1.63;100.00;98657.19;5090620;28;20459;-47
2023/01/17 07:55:54;;;;;;;25.60;16.67;;;;;;;-1.60;100.00;98651.22;5090336;28;20048;-48
2023/01/17 07:58:20;;;;;;;26.80;17.00;;;;;;;-1.57;100.00;98649.84;5093335;28;20016;-46
2023/01/17 08:00:45;;;;;;;26.88;16.60;;;;;;;-1.52;100.00;98649.81;5094471;28;20499;-47
2023/01/17 08:03:16;;;;;;;26.00;16.95;;;;;;;-1.48;100.00;98650.06;5094634;28;20107;-48
2023/01/17 08:05:43;;;;;;;27.10;16.58;;;;;;;-1.47;100.00;98648.97;5094498;28;20042;-49
2023/01/17 08:08:08;;;;;;;26.70;16.77;;;;;;;-1.46;100.00;98651.41;5094517;28;20036;-50
2023/01/17 08:10:34;;;;;;;23.60;16.10;;;;;;;-1.44;100.00;98648.41;5094262;28;20035;-48
2023/01/17 08:13:00;;;;;;;26.90;17.00;;;;;;;-1.37;100.00;98653.53;5094404;28;20028;-46
2023/01/17 08:15:25;;;;;;;27.27;16.95;;;;;;;-1.36;100.00;98657.84;5094408;28;20024;-50
2023/01/17 08:17:56;;;;;;;26.70;17.10;;;;;;;-1.38;100.00;98658.16;5094429;28;20028;-49
2023/01/17 08:20:22;;;;;;;26.85;16.80;;;;;;;-1.34;100.00;98656.47;5094339;28;20032;-46
2023/01/17 08:22:47;;;;;;;27.05;16.02;;;;;;;-1.34;100.00;98656.47;5094271;28;20391;-49
2023/01/17 08:25:13;;;;;;;26.85;16.88;;;;;;;-1.27;100.00;98643.41;5094084;28;20043;-47
2023/01/17 08:27:39;;;;;;;27.73;17.65;;;;;;;-1.21;100.00;98654.22;5084265;28;20035;-47
2023/01/17 08:30:06;;;;;;;27.80;15.98;;;;;;;-1.16;100.00;98643.34;5077363;28;20029;-46
2023/01/17 08:32:32;;;;;;;26.77;16.33;;;;;;;-1.11;100.00;98660.38;5071745;28;20032;-47
2023/01/17 08:34:57;;;;;;;27.23;16.52;;;;;;;-1.08;100.00;98663.63;5072169;28;20089;-51
2023/01/17 08:37:23;;;;;;;25.98;15.98;;;;;;;-1.03;100.00;98664.41;5071818;28;20031;-50
2023/01/17 08:39:48;;;;;;;27.15;16.77;;;;;;;-0.97;100.00;98654.34;5072008;28;20028;-51
2023/01/17 08:42:13;;;;;;;26.63;16.25;;;;;;;-0.86;100.00;98657.75;5070535;28;20036;-46
2023/01/17 08:44:39;;;;;;;25.55;15.60;;;;;;;-0.82;100.00;98658.84;5071921;28;20490;-51
2023/01/17 08:47:04;;;;;;;25.35;16.40;;;;;;;-0.84;100.00;98664.53;5081281;28;20027;-48
2023/01/17 08:49:30;;;;;;;25.60;16.10;;;;;;;-0.84;100.00;98663.72;5091152;28;20604;-50
2023/01/17 08:51:55;;;;;;;27.50;16.88;;;;;;;-0.82;100.00;98669.69;5091449;28;20039;-48
2023/01/17 08:54:21;;;;;;;27.85;18.20;;;;;;;-0.84;100.00;98674.59;5090033;28;20052;-49
2023/01/17 08:56:47;;;;;;;24.65;16.40;;;;;;;-0.82;100.00;98667.78;5091206;28;20032;-49
2023/01/17 08:59:13;;;;;;;26.40;16.33;;;;;;;-0.77;100.00;98672.34;5091271;28;20137;-48
2023/01/17 09:01:40;;;;;;;28.27;16.55;;;;;;;-0.70;100.00;98661.16;5091310;28;20438;-52
2023/01/17 09:04:07;;;;;;;26.88;16.88;;;;;;;-0.66;100.00;98663.03;5091086;28;20038;-48
2023/01/17 09:06:38;;;;;;;26.17;16.95;;;;;;;-0.68;100.00;98658.97;5091030;28;20107;-50
2023/01/17 09:09:06;;;;;;;26.70;16.70;;;;;;;-0.63;100.00;98678.75;5088180;28;20379;-51
2023/01/17 09:11:31;;;;;;;27.00;16.55;;;;;;;-0.60;100.00;98671.94;5091301;28;20036;-52
2023/01/17 09:13:57;;;;;;;27.45;16.55;;;;;;;-0.58;100.00;98679.78;5091124;28;20024;-49
2023/01/17 09:16:22;;;;;;;26.15;16.80;;;;;;;-0.57;100.00;98684.13;5090556;28;20060;-50
2023/01/17 09:18:47;;;;;;;27.13;16.58;;;;;;;-0.59;100.00;98683.59;5090803;28;20024;-50
2023/01/17 09:21:16;;;;;;;26.42;15.88;;;;;;;-0.50;100.00;98700.91;5090867;28;20028;-50
2023/01/17 09:23:41;;;;;;;27.30;17.05;;;;;;;-0.49;100.00;98692.47;5090983;28;20410;-50
2023/01/17 09:26:16;;;;;;;26.02;16.88;;;;;;;-0.44;100.00;98691.63;5090561;28;20032;-50
2023/01/17 09:28:41;;;;;;;25.30;17.15;;;;;;;-0.42;100.00;98694.03;5091237;28;20476;-48
2023/01/17 09:31:07;;;;;;;25.98;16.92;;;;;;;-0.36;100.00;98695.59;5090899;28;20024;-53
2023/01/17 09:33:32;;;;;;;25.33;17.08;;;;;;;-0.27;100.00;98691.16;5090796;28;20051;-50
2023/01/17 09:36:00;;;;;;;24.80;16.67;;;;;;;-0.26;100.00;98686.56;5090477;28;20464;-47
2023/01/17 09:38:25;;;;;;;26.23;17.83;;;;;;;-0.14;100.00;98699.75;5090361;28;20035;-52
2023/01/17 09:40:51;;;;;;;25.33;16.35;;;;;;;-0.10;100.00;98703.53;5090536;28;20032;-48
2023/01/17 09:43:32;;;;;;;25.05;17.13;;;;;;;-0.05;100.00;98704.25;5090179;28;20114;-46
2023/01/17 09:45:57;;;;;;;24.92;16.35;;;;;;;0.06;100.00;98706.88;5090549;28;20024;-49
2023/01/17 09:48:31;;;;;;;24.95;15.90;;;;;;;0.16;100.00;98712.19;5089881;28;20122;-47
2023/01/17 09:51:02;;;;;;;;;;;;;;;0.26;100.00;98711.28;5089233;28;20066;-50
2023/01/17 09:53:33;;;;;;;24.58;15.95;;;;;;;0.26;100.00;98703.91;5090247;28;19994;-51
2023/01/17 09:56:03;;;;;;;25.73;15.52;;;;;;;0.34;100.00;98702.47;5090194;28;20074;-47
2023/01/17 09:58:31;;;;;;;25.77;16.25;;;;;;;0.41;100.00;98708.38;5090585;28;20093;-52
2023/01/17 10:01:32;;;;;;;25.05;15.70;;;;;;;0.48;100.00;98705.28;5089980;28;20036;-49
2023/01/17 10:04:05;;;;;;;23.92;15.82;;;;;;;0.58;100.00;98717.94;5090081;28;20036;-53
2023/01/17 10:06:42;;;;;;;25.88;15.77;;;;;;;0.61;100.00;98717.38;5089995;28;20081;-50
2023/01/17 10:09:29;;;;;;;24.60;15.68;;;;;;;0.71;100.00;98717.22;5088187;28;20066;-50
2023/01/17 10:12:21;;;;;;;23.60;15.68;;;;;;;0.80;100.00;98713.84;5090162;28;20027;-49
2023/01/17 10:14:46;;;;;;;23.20;15.30;;;;;;;0.87;100.00;98714.28;5090145;28;20032;-47
2023/01/17 10:17:21;;;;;;;24.20;15.63;;;;;;;0.90;100.00;98719.94;5087742;28;20035;-48
2023/01/17 10:19:57;;;;;;;24.20;15.50;;;;;;;0.98;100.00;98717.69;5089666;28;20032;-51
2023/01/17 10:22:45;;;;;;;23.92;14.80;;;;;;;1.01;100.00;98719.81;5089832;28;20043;-50
2023/01/17 10:25:34;;;;;;;27.80;16.17;;;;;;;1.06;100.00;98714.31;5089690;28;20039;-48
2023/01/17 10:28:13;;;;;;;24.85;14.63;;;;;;;1.10;100.00;98712.59;5089215;28;20034;-51
2023/01/17 10:30:47;;;;;;;23.70;15.10;;;;;;;1.13;100.00;98709.28;5089903;28;20039;-48
2023/01/17 10:33:17;;;;;;;23.45;14.63;;;;;;;1.20;100.00;98706.97;5089862;28;20487;-48
2023/01/17 10:35:53;;;;;;;25.23;15.32;;;;;;;1.27;100.00;98706.63;5089850;28;20475;-51
2023/01/17 10:38:21;;;;;;;22.33;14.20;;;;;;;1.30;100.00;98711.47;5089369;28;20401;-50
2023/01/17 10:40:58;;;;;;;23.60;14.95;;;;;;;1.35;100.00;98711.38;5089771;28;20097;-50
2023/01/17 10:43:43;;;;;;;21.13;13.82;;;;;;;1.40;100.00;98711.31;5089561;28;20043;-51
2023/01/17 10:46:15;;;;;;;22.50;14.57;;;;;;;1.46;100.00;98713.94;5089639;28;20069;-49
2023/01/17 10:48:44;;;;;;;22.70;14.93;;;;;;;1.51;100.00;98722.84;5089404;28;20171;-47
2023/01/17 10:52:04;;;;;;;23.65;14.80;;;;;;;1.59;100.00;98717.81;5089726;28;20467;-47
2023/01/17 10:54:54;;;;;;;26.70;16.33;;;;;;;1.69;100.00;98718.47;5006890;28;20077;-48
2023/01/17 10:57:22;;;;;;;22.30;13.80;;;;;;;1.65;100.00;98705.72;5085410;28;20036;-50
2023/01/17 10:59:49;;;;;;;22.88;13.85;;;;;;;1.81;100.00;98712.53;5089356;28;20035;-50
2023/01/17 11:02:28;;;;;;;23.23;14.48;;;;;;;1.97;100.00;98713.06;5087907;28;20121;-48
2023/01/17 11:04:56;;;;;;;21.50;14.52;;;;;;;2.07;100.00;98711.25;5089182;28;20039;-47
2023/01/17 11:07:26;;;;;;;21.25;14.40;;;;;;;2.17;100.00;98709.13;5089567;28;20057;-49
2023/01/17 11:09:57;;;;;;;22.38;14.52;;;;;;;2.16;100.00;98699.31;5087697;28;20031;-52
2023/01/17 11:12:42;;;;;;;21.58;14.13;;;;;;;2.25;100.00;98702.16;5088229;28;20131;-50
2023/01/17 11:15:08;;;;;;;29.17;17.50;;;;;;;2.23;100.00;98703.56;5085704;28;20114;-50
2023/01/17 11:17:51;;;;;;;25.60;15.25;;;;;;;2.29;100.00;98696.91;5090042;28;20036;-49
2023/01/17 11:20:18;;;;;;;22.23;13.57;;;;;;;2.30;100.00;98702.03;5090274;28;20031;-51
2023/01/17 11:22:59;;;;;;;22.63;12.95;;;;;;;2.30;99.90;98703.97;5090129;28;20031;-48
2023/01/17 11:25:25;;;;;;;22.13;13.30;;;;;;;2.25;99.15;98701.34;5088723;28;20579;-48
2023/01/17 11:28:03;;;;;;;22.08;13.63;;;;;;;2.24;99.14;98694.25;5088723;28;20039;-48
2023/01/17 11:30:29;;;;;;;20.83;12.75;;;;;;;2.22;97.78;98694.56;5088772;28;20043;-47
2023/01/17 11:33:02;;;;;;;22.60;13.20;;;;;;;2.26;96.87;98702.97;5088171;28;20028;-49
2023/01/17 11:35:30;;;;;;;20.73;12.45;;;;;;;2.27;96.83;98696.38;5088730;28;20035;-48
2023/01/17 11:38:01;;;;;;;21.02;13.30;;;;;;;2.38;97.68;98702.44;5088681;28;20038;-49
2023/01/17 11:40:29;;;;;;;21.17;12.80;;;;;;;2.36;96.16;98696.50;5088922;28;20075;-47
2023/01/17 11:42:58;;;;;;;20.90;13.13;;;;;;;2.37;96.11;98698.09;5088716;28;20391;-50
2023/01/17 11:45:30;;;;;;;20.88;13.30;;;;;;;2.36;96.15;98691.84;5088881;28;20138;-52
2023/01/17 11:48:07;;;;;;;20.83;12.65;;;;;;;2.44;96.18;98693.06;5088932;28;20028;-47
2023/01/17 11:50:39;;;;;;;21.30;12.93;;;;;;;2.48;93.65;98689.41;5088595;28;20163;-50
2023/01/17 11:53:20;;;;;;;20.75;12.20;;;;;;;2.55;91.93;98686.25;5088368;28;20040;-48
2023/01/17 11:56:10;;;;;;;20.45;11.57;;;;;;;2.58;92.36;98685.63;5088519;28;20055;-47
2023/01/17 11:58:39;;;;;;;24.58;14.65;;;;;;;2.55;93.14;98688.19;5088677;28;20102;-48
2023/01/17 12:01:33;;;;;;;19.60;10.90;;;;;;;2.60;91.39;98683.41;5088470;28;20546;-52
2023/01/17 12:04:01;;;;;;;18.90;10.70;;;;;;;2.57;90.18;98683.22;5088734;28;20062;-47
2023/01/17 12:06:36;;;;;;;20.27;11.63;;;;;;;2.55;91.21;98682.72;5088619;28;20068;-49
2023/01/17 12:09:21;;;;;;;20.88;12.30;;;;;;;2.51;91.40;98679.78;5086723;28;20107;-48
2023/01/17 12:15:19;;;;;;;21.23;11.40;;;;;;;2.50;91.18;98689.09;5088695;28;20085;-51
2023/01/17 12:18:07;;;;;;;19.67;11.03;;;;;;;2.51;87.90;98685.25;5088432;28;20076;-50
2023/01/17 12:21:11;;;;;;;21.55;11.23;;;;;;;2.55;89.36;98688.19;5088656;28;20351;-47
2023/01/17 12:23:56;;;;;;;19.67;11.27;;;;;;;2.55;89.14;98691.69;5088666;28;20035;-48
2023/01/17 12:26:40;;;;;;;17.65;11.00;;;;;;;2.55;89.51;98680.78;5088622;28;20024;-48
2023/01/17 12:29:33;;;;;;;17.38;9.98;;;;;;;2.66;88.35;98678.66;5088714;28;20036;-50
2023/01/17 12:32:20;;;;;;;17.60;9.90;;;;;;;2.74;86.69;98679.88;5088449;28;20480;-49
2023/01/17 12:34:53;;;;;;;19.00;10.20;;;;;;;2.67;83.22;98676.72;5088349;28;20028;-49
2023/01/17 12:37:25;;;;;;;19.85;11.57;;;;;;;2.65;83.30;98675.09;5088333;28;20032;-46
2023/01/17 12:39:57;;;;;;;20.10;11.40;;;;;;;2.63;83.10;98671.91;5086852;28;20566;-48
2023/01/17 12:42:31;;;;;;;17.27;10.30;;;;;;;2.66;82.96;98670.47;5088229;28;20119;-49
2023/01/17 12:45:08;;;;;;;14.80;9.60;;;;;;;2.74;80.79;98674.41;5091940;28;20382;-52
2023/01/17 12:47:43;;;;;;;18.60;10.25;;;;;;;2.67;80.97;98668.53;5091953;28;20542;-49
2023/01/17 12:50:25;;;;;;;16.02;9.43;;;;;;;2.69;80.28;98667.13;5091975;28;20028;-50
2023/01/17 12:53:13;;;;;;;17.73;9.38;;;;;;;2.61;79.82;98659.66;5091856;28;20059;-49